Sm Yantian — 3EHD2 — position and weather

sailwx.info

Track history (hours):
 
Tides and Currents Weather Stations Pressure Air Temp Water Temp Dewpoint Dewpoint Depression Visibility Wind Speed Wind Dir Waves Ship Positions

Sm Yantian

Last reported at 2017-Sep-16 23:30 UTC. Time now 2017-Sep-25 11:27 UTC.
Position N 37°40' W 130°52'.
Warning: this ship's position is 8 days out of date.

Length 304 m; draft 12.1 m.

Type: Ship (hazmat cat A). MMSI: 372025000.

Date/timePositionNaut miles runAvg speedWind from/ knotsBaromVisibWave heightAir tempDewpointWater temp
2017-Sep-16 23:30N 37°40' W 130°52'5817.7
2017-Sep-16 20:13N 37°08' W 129°51'417.7
2017-Sep-16 20:00N 37°06' W 129°47'18617.5
2017-Sep-16 09:21N 35°18' W 126°39'3818.1
2017-Sep-16 07:15N 34°56' W 126°01'517.9
2017-Sep-16 07:00N 34°53' W 125°57'1016.8
2017-Sep-16 06:23N 34°47' W 125°47'915.4
2017-Sep-16 05:47N 34°42' W 125°37'514.3
2017-Sep-16 05:28N 34°39' W 125°33'714.6
2017-Sep-16 04:58N 34°35' W 125°26'714.5
2017-Sep-16 04:30N 34°31' W 125°19'714.5
2017-Sep-16 04:00N 34°28' W 125°11'815.7
2017-Sep-16 03:29N 34°28' W 125°01'815.5
2017-Sep-16 03:00N 34°28' W 124°52'815.4
2017-Sep-16 02:30N 34°28' W 124°43'815.7
2017-Sep-16 02:00N 34°27' W 124°33'815.6
2017-Sep-16 01:30N 34°27' W 124°24'815.7
2017-Sep-16 01:00N 34°27' W 124°14'815.7
2017-Sep-16 00:30N 34°27' W 124°05'815.8
2017-Sep-16 00:00N 34°27' W 123°55'1615.8
2017-Sep-15 22:58N 34°28' W 123°35'815.9
2017-Sep-15 22:26N 34°28' W 123°25'715.8
2017-Sep-15 22:00N 34°28' W 123°17'816.0
2017-Sep-15 21:30N 34°27' W 123°07'815.7
2017-Sep-15 21:00N 34°27' W 122°57'815.7
2017-Sep-15 20:30N 34°27' W 122°48'915.6
2017-Sep-15 19:55N 34°27' W 122°37'615.5
2017-Sep-15 19:30N 34°27' W 122°29'815.3
2017-Sep-15 18:58N 34°27' W 122°19'715.2
2017-Sep-15 18:30N 34°27' W 122°11'815.3
2017-Sep-15 17:59N 34°27' W 122°01'715.4
2017-Sep-15 17:30N 34°26' W 121°52'815.4
2017-Sep-15 17:00N 34°26' W 121°43'815.4
2017-Sep-15 16:30N 34°26' W 121°33'715.0
2017-Sep-15 16:00N 34°26' W 121°24'815.1
2017-Sep-15 15:30N 34°26' W 121°15'815.4
2017-Sep-15 14:59N 34°26' W 121°05'715.3
2017-Sep-15 14:30N 34°26' W 120°56'715.1
2017-Sep-15 14:00N 34°25' W 120°47'815.3
2017-Sep-15 13:30N 34°23' W 120°38'815.3
2017-Sep-15 13:00N 34°21' W 120°29'815.6
2017-Sep-15 12:29N 34°19' W 120°20'715.5
2017-Sep-15 12:01N 34°17' W 120°11'815.1
2017-Sep-15 11:30N 34°15' W 120°02'815.2
2017-Sep-15 11:00N 34°13' W 119°54'815.3
2017-Sep-15 10:31N 34°11' W 119°45'815.3
2017-Sep-15 10:01N 34°09' W 119°36'814.9
2017-Sep-15 09:30N 34°07' W 119°27'814.9
2017-Sep-15 08:59N 34°05' W 119°18'715.3
2017-Sep-15 08:31N 34°02' W 119°10'714.8
2017-Sep-15 08:01N 33°58' W 119°02'611.8
2017-Sep-15 07:28N 33°55' W 118°55'612.2
2017-Sep-15 07:00N 33°52' W 118°50'612.4
2017-Sep-15 06:31N 33°49' W 118°43'612.2
2017-Sep-15 06:00N 33°46' W 118°37'611.9
2017-Sep-15 05:30N 33°43' W 118°31'611.9
2017-Sep-15 05:01N 33°40' W 118°24'611.5
2017-Sep-15 04:30N 33°38' W 118°18'510.6
2017-Sep-15 04:01N 33°40' W 118°12'4 8.0
2017-Sep-15 03:30N 33°44' W 118°12'2 4.4
2017-Sep-15 03:00N 33°46' W 118°13'0 0.6
2017-Sep-15 02:18N 33°46' W 118°14'0 0.0
2017-Sep-15 01:00N 33°46' W 118°14'0 0.0
2017-Sep-14 21:06N 33°46' W 118°14'0 0.1
2017-Sep-14 21:00N 33°46' W 118°14'0 0.0
2017-Sep-14 19:30N 33°46' W 118°14'0 0.0
2017-Sep-14 18:54N 33°46' W 118°14'0 0.0
2017-Sep-14 18:18N 33°46' W 118°14'0 0.0
2017-Sep-14 17:15N 33°46' W 118°14'0 0.0
2017-Sep-14 17:00N 33°46' W 118°14'0 0.0
2017-Sep-14 16:30N 33°46' W 118°14'0 0.0
2017-Sep-14 15:48N 33°46' W 118°14'0 0.0
2017-Sep-14 15:30N 33°46' W 118°14'0 0.0
2017-Sep-14 08:12N 33°46' W 118°14'0 0.0
2017-Sep-14 07:54N 33°46' W 118°14'0 0.1
2017-Sep-14 07:24N 33°46' W 118°14'0 0.1
2017-Sep-14 07:00N 33°46' W 118°14'0 0.0
2017-Sep-14 06:30N 33°46' W 118°14'0 0.0
2017-Sep-14 06:00N 33°46' W 118°14'0 0.0
2017-Sep-14 05:24N 33°46' W 118°14'0 0.0
2017-Sep-14 04:12N 33°46' W 118°14'0 0.0
2017-Sep-14 03:48N 33°46' W 118°14'0 0.0
2017-Sep-14 03:24N 33°46' W 118°14'0 0.0
2017-Sep-14 03:00N 33°46' W 118°14'0 0.0
2017-Sep-14 02:24N 33°46' W 118°14'0 0.1
2017-Sep-14 02:00N 33°46' W 118°14'0 0.1
2017-Sep-14 01:24N 33°46' W 118°14'0 0.0
2017-Sep-14 00:51N 33°46' W 118°14'0 0.0
2017-Sep-14 00:18N 33°46' W 118°14'0 0.0
2017-Sep-13 23:54N 33°46' W 118°14'0 0.0
2017-Sep-13 23:24N 33°46' W 118°14'0 0.0
2017-Sep-13 23:00N 33°46' W 118°14'0 0.0
2017-Sep-13 22:24N 33°46' W 118°14'0 0.0
2017-Sep-13 21:54N 33°46' W 118°14'0 0.0
2017-Sep-13 21:30N 33°46' W 118°14'0 0.0
2017-Sep-13 21:00N 33°46' W 118°14'0 0.0
2017-Sep-13 20:24N 33°46' W 118°14'0 0.0
2017-Sep-13 19:54N 33°46' W 118°14'0 0.0
2017-Sep-13 18:54N 33°46' W 118°14'0 0.0
2017-Sep-13 18:30N 33°46' W 118°14'0 0.0
2017-Sep-13 17:36N 33°46' W 118°14'0 0.0
2017-Sep-13 15:48N 33°46' W 118°14'0 0.0
2017-Sep-13 15:24N 33°46' W 118°14'0 0.0
2017-Sep-13 14:54N 33°46' W 118°14'0 0.0
2017-Sep-13 14:18N 33°46' W 118°14'0 0.0
2017-Sep-13 14:00N 33°46' W 118°14'0 0.0
2017-Sep-13 13:30N 33°46' W 118°14'0 0.0
2017-Sep-13 12:54N 33°46' W 118°14'0 0.0
2017-Sep-13 12:30N 33°46' W 118°14'0 0.0
2017-Sep-13 11:48N 33°46' W 118°14'0 0.1
2017-Sep-13 11:24N 33°46' W 118°14'0 0.0
2017-Sep-13 10:54N 33°46' W 118°14'0 0.0
2017-Sep-13 10:30N 33°46' W 118°14'0 0.1
2017-Sep-13 10:00N 33°46' W 118°14'0 0.0
2017-Sep-13 09:18N 33°46' W 118°14'0 0.0
2017-Sep-13 09:00N 33°46' W 118°14'0 0.1
2017-Sep-13 08:24N 33°46' W 118°14'0 0.2
2017-Sep-13 08:00N 33°46' W 118°14'0 0.1
2017-Sep-13 07:30N 33°46' W 118°14'0 0.1
2017-Sep-13 07:00N 33°46' W 118°14'0 0.0
2017-Sep-13 06:12N 33°46' W 118°14'0 0.0
2017-Sep-13 06:00N 33°46' W 118°14'0 0.0
2017-Sep-13 05:30N 33°46' W 118°14'0 0.0
2017-Sep-13 04:54N 33°46' W 118°14'0 0.0
2017-Sep-13 04:12N 33°46' W 118°14'0 0.0
2017-Sep-13 04:00N 33°46' W 118°14'0 0.0
2017-Sep-13 03:30N 33°46' W 118°14'0 0.0
2017-Sep-13 03:00N 33°46' W 118°14'0 0.0
2017-Sep-13 02:24N 33°46' W 118°14'0 0.0
2017-Sep-13 02:00N 33°46' W 118°14'0 0.1
2017-Sep-13 01:30N 33°46' W 118°14'0 0.1
2017-Sep-13 01:00N 33°46' W 118°14'0 0.0
2017-Sep-13 00:30N 33°46' W 118°14'0 0.0
2017-Sep-13 00:00N 33°46' W 118°14'0 0.0
2017-Sep-12 23:30N 33°46' W 118°14'0 0.0
2017-Sep-12 23:00N 33°46' W 118°14'0 0.1
2017-Sep-12 22:30N 33°46' W 118°14'0 0.0
2017-Sep-12 22:00N 33°46' W 118°14'0 0.0
2017-Sep-12 21:30N 33°46' W 118°14'0 0.0
2017-Sep-12 21:00N 33°46' W 118°14'0 0.0
2017-Sep-12 20:30N 33°46' W 118°14'0 0.0
2017-Sep-12 19:54N 33°46' W 118°14'0 0.1
2017-Sep-12 19:27N 33°46' W 118°14'0 0.1
2017-Sep-12 19:00N 33°46' W 118°14'0 0.0
2017-Sep-12 18:30N 33°46' W 118°14'0 0.0
2017-Sep-12 18:00N 33°46' W 118°14'0 0.0
2017-Sep-12 17:12N 33°46' W 118°14'0 0.0
2017-Sep-12 17:00N 33°46' W 118°14'0 0.0
2017-Sep-12 16:30N 33°46' W 118°14'0 0.0
2017-Sep-12 16:00N 33°46' W 118°14'0 0.0
2017-Sep-12 15:30N 33°46' W 118°14'0 0.0
2017-Sep-12 15:00N 33°46' W 118°14'0 0.0
2017-Sep-12 14:09N 33°46' W 118°14'0 0.0
2017-Sep-12 13:54N 33°46' W 118°14'0 0.0
2017-Sep-12 13:30N 33°46' W 118°14'0 0.0
2017-Sep-12 12:57N 33°46' W 118°14'0 1.1
2017-Sep-12 12:30N 33°46' W 118°13'1 2.9
2017-Sep-12 12:01N 33°45' W 118°13'4 7.9
2017-Sep-12 11:31N 33°41' W 118°11'4 8.4
2017-Sep-12 11:00N 33°38' W 118°13'4 8.0
2017-Sep-12 10:31N 33°36' W 118°18'510.0
2017-Sep-12 10:01N 33°38' W 118°24'611.6
2017-Sep-12 09:31N 33°41' W 118°30'611.8
2017-Sep-12 09:00N 33°43' W 118°36'612.1
2017-Sep-12 08:31N 33°46' W 118°42'612.1
2017-Sep-12 08:00N 33°49' W 118°49'612.1
2017-Sep-12 07:30N 33°52' W 118°55'611.9
2017-Sep-12 07:01N 33°55' W 119°01'612.1
2017-Sep-12 06:30N 33°58' W 119°08'612.0
2017-Sep-12 06:01N 34°01' W 119°14'612.6
2017-Sep-12 05:30N 34°03' W 119°21'815.1
2017-Sep-12 05:00N 34°05' W 119°30'815.2
2017-Sep-12 04:30N 34°07' W 119°39'815.2
2017-Sep-12 04:00N 34°10' W 119°48'815.8
2017-Sep-12 03:30N 34°12' W 119°57'815.1
2017-Sep-12 03:00N 34°14' W 120°06'715.0
2017-Sep-12 02:30N 34°16' W 120°14'715.1
2017-Sep-12 02:00N 34°18' W 120°23'815.0
2017-Sep-12 01:29N 34°19' W 120°32'714.4
2017-Sep-12 01:00N 34°21' W 120°40'714.8
2017-Sep-12 00:30N 34°24' W 120°49'815.3
2017-Sep-12 00:00N 34°26' W 120°58'815.4
2017-Sep-11 23:30N 34°30' W 121°06'815.4
2017-Sep-11 23:00N 34°34' W 121°14'816.4
2017-Sep-11 22:30N 34°38' W 121°23'816.6
2017-Sep-11 22:00N 34°42' W 121°31'816.8
2017-Sep-11 21:30N 34°46' W 121°40'816.5
2017-Sep-11 21:00N 34°50' W 121°49'3516.8
2017-Sep-11 18:57N 35°08' W 122°25'1516.9
2017-Sep-11 18:03N 35°16' W 122°41'216.1
2017-Sep-11 17:57N 35°16' W 122°42'2616.6
2017-Sep-11 16:23N 35°29' W 123°10'1617.0
2017-Sep-11 15:25N 35°38' W 123°28'717.4
2017-Sep-11 15:00N 35°41' W 123°35'918.3
2017-Sep-11 14:30N 35°46' W 123°45'1018.9
2017-Sep-11 14:00N 35°51' W 123°55'919.0
2017-Sep-11 13:30N 35°56' W 124°05'1218.9
2017-Sep-11 12:51N 36°02' W 124°18'719.0
2017-Sep-11 12:30N 36°05' W 124°25'1318.5
2017-Sep-11 11:48N 36°12' W 124°39'618.4
2017-Sep-11 11:28N 36°15' W 124°46'817.8
2017-Sep-11 11:00N 36°19' W 124°54'917.5
2017-Sep-11 10:30N 36°24' W 125°04'917.5
2017-Sep-11 10:00N 36°28' W 125°14'1417.4
2017-Sep-11 09:12N 36°34' W 125°29'417.5
2017-Sep-11 09:00N 36°36' W 125°33'917.5
2017-Sep-11 08:30N 36°40' W 125°42'917.6
2017-Sep-11 07:58N 36°44' W 125°53'1717.5
2017-Sep-11 07:01N 36°52' W 126°11'217.3
2017-Sep-11 06:56N 36°52' W 126°13'717.1
2017-Sep-11 06:30N 36°56' W 126°21'3316.2
2017-Sep-11 04:28N 37°11' W 126°58'1815.9
2017-Sep-11 03:22N 37°19' W 127°17'616.1
2017-Sep-11 03:00N 37°22' W 127°23'1116.3
2017-Sep-11 02:19N 37°27' W 127°36'2514.6
2017-Sep-11 00:38N 37°39' W 128°04'414.9
2017-Sep-11 00:23N 37°40' W 128°08'1120.5
2017-Sep-10 23:49N 37°45' W 128°21'  
Track history (hours):
 
Tides and Currents Weather Stations Pressure Air Temp Water Temp Dewpoint Dewpoint Depression Visibility Wind Speed Wind Dir Waves Ship Positions

Sm Yantian

Last reported at 2017-Sep-16 23:30 UTC. Time now 2017-Sep-25 11:27 UTC.
Position N 37°40' W 130°52'.
Warning: this ship's position is 8 days out of date.

Length 304 m; draft 12.1 m.

Type: Ship (hazmat cat A). MMSI: 372025000.

Date/timePositionNaut miles runAvg speedWind from/ knotsBaromVisibWave heightAir tempDewpointWater temp
2017-Sep-16 23:30N 37°40' W 130°52'5817.7
2017-Sep-16 20:13N 37°08' W 129°51'417.7
2017-Sep-16 20:00N 37°06' W 129°47'18617.5
2017-Sep-16 09:21N 35°18' W 126°39'3818.1
2017-Sep-16 07:15N 34°56' W 126°01'517.9
2017-Sep-16 07:00N 34°53' W 125°57'1016.8
2017-Sep-16 06:23N 34°47' W 125°47'915.4
2017-Sep-16 05:47N 34°42' W 125°37'514.3
2017-Sep-16 05:28N 34°39' W 125°33'714.6
2017-Sep-16 04:58N 34°35' W 125°26'714.5
2017-Sep-16 04:30N 34°31' W 125°19'714.5
2017-Sep-16 04:00N 34°28' W 125°11'815.7
2017-Sep-16 03:29N 34°28' W 125°01'815.5
2017-Sep-16 03:00N 34°28' W 124°52'815.4
2017-Sep-16 02:30N 34°28' W 124°43'815.7
2017-Sep-16 02:00N 34°27' W 124°33'815.6
2017-Sep-16 01:30N 34°27' W 124°24'815.7
2017-Sep-16 01:00N 34°27' W 124°14'815.7
2017-Sep-16 00:30N 34°27' W 124°05'815.8
2017-Sep-16 00:00N 34°27' W 123°55'1615.8
2017-Sep-15 22:58N 34°28' W 123°35'815.9
2017-Sep-15 22:26N 34°28' W 123°25'715.8
2017-Sep-15 22:00N 34°28' W 123°17'816.0
2017-Sep-15 21:30N 34°27' W 123°07'815.7
2017-Sep-15 21:00N 34°27' W 122°57'815.7
2017-Sep-15 20:30N 34°27' W 122°48'915.6
2017-Sep-15 19:55N 34°27' W 122°37'615.5
2017-Sep-15 19:30N 34°27' W 122°29'815.3
2017-Sep-15 18:58N 34°27' W 122°19'715.2
2017-Sep-15 18:30N 34°27' W 122°11'815.3
2017-Sep-15 17:59N 34°27' W 122°01'715.4
2017-Sep-15 17:30N 34°26' W 121°52'815.4
2017-Sep-15 17:00N 34°26' W 121°43'815.4
2017-Sep-15 16:30N 34°26' W 121°33'715.0
2017-Sep-15 16:00N 34°26' W 121°24'815.1
2017-Sep-15 15:30N 34°26' W 121°15'815.4
2017-Sep-15 14:59N 34°26' W 121°05'715.3
2017-Sep-15 14:30N 34°26' W 120°56'715.1
2017-Sep-15 14:00N 34°25' W 120°47'815.3
2017-Sep-15 13:30N 34°23' W 120°38'815.3
2017-Sep-15 13:00N 34°21' W 120°29'815.6
2017-Sep-15 12:29N 34°19' W 120°20'715.5
2017-Sep-15 12:01N 34°17' W 120°11'815.1
2017-Sep-15 11:30N 34°15' W 120°02'815.2
2017-Sep-15 11:00N 34°13' W 119°54'815.3
2017-Sep-15 10:31N 34°11' W 119°45'815.3
2017-Sep-15 10:01N 34°09' W 119°36'814.9
2017-Sep-15 09:30N 34°07' W 119°27'814.9
2017-Sep-15 08:59N 34°05' W 119°18'715.3
2017-Sep-15 08:31N 34°02' W 119°10'714.8
2017-Sep-15 08:01N 33°58' W 119°02'611.8
2017-Sep-15 07:28N 33°55' W 118°55'612.2
2017-Sep-15 07:00N 33°52' W 118°50'612.4
2017-Sep-15 06:31N 33°49' W 118°43'612.2
2017-Sep-15 06:00N 33°46' W 118°37'611.9
2017-Sep-15 05:30N 33°43' W 118°31'611.9
2017-Sep-15 05:01N 33°40' W 118°24'611.5
2017-Sep-15 04:30N 33°38' W 118°18'510.6
2017-Sep-15 04:01N 33°40' W 118°12'4 8.0
2017-Sep-15 03:30N 33°44' W 118°12'2 4.4
2017-Sep-15 03:00N 33°46' W 118°13'0 0.6
2017-Sep-15 02:18N 33°46' W 118°14'0 0.0
2017-Sep-15 01:00N 33°46' W 118°14'0 0.0
2017-Sep-14 21:06N 33°46' W 118°14'0 0.1
2017-Sep-14 21:00N 33°46' W 118°14'0 0.0
2017-Sep-14 19:30N 33°46' W 118°14'0 0.0
2017-Sep-14 18:54N 33°46' W 118°14'0 0.0
2017-Sep-14 18:18N 33°46' W 118°14'0 0.0
2017-Sep-14 17:15N 33°46' W 118°14'0 0.0
2017-Sep-14 17:00N 33°46' W 118°14'0 0.0
2017-Sep-14 16:30N 33°46' W 118°14'0 0.0
2017-Sep-14 15:48N 33°46' W 118°14'0 0.0
2017-Sep-14 15:30N 33°46' W 118°14'0 0.0
2017-Sep-14 08:12N 33°46' W 118°14'0 0.0
2017-Sep-14 07:54N 33°46' W 118°14'0 0.1
2017-Sep-14 07:24N 33°46' W 118°14'0 0.1
2017-Sep-14 07:00N 33°46' W 118°14'0 0.0
2017-Sep-14 06:30N 33°46' W 118°14'0 0.0
2017-Sep-14 06:00N 33°46' W 118°14'0 0.0
2017-Sep-14 05:24N 33°46' W 118°14'0 0.0
2017-Sep-14 04:12N 33°46' W 118°14'0 0.0
2017-Sep-14 03:48N 33°46' W 118°14'0 0.0
2017-Sep-14 03:24N 33°46' W 118°14'0 0.0
2017-Sep-14 03:00N 33°46' W 118°14'0 0.0
2017-Sep-14 02:24N 33°46' W 118°14'0 0.1
2017-Sep-14 02:00N 33°46' W 118°14'0 0.1
2017-Sep-14 01:24N 33°46' W 118°14'0 0.0
2017-Sep-14 00:51N 33°46' W 118°14'0 0.0
2017-Sep-14 00:18N 33°46' W 118°14'0 0.0
2017-Sep-13 23:54N 33°46' W 118°14'0 0.0
2017-Sep-13 23:24N 33°46' W 118°14'0 0.0
2017-Sep-13 23:00N 33°46' W 118°14'0 0.0
2017-Sep-13 22:24N 33°46' W 118°14'0 0.0
2017-Sep-13 21:54N 33°46' W 118°14'0 0.0
2017-Sep-13 21:30N 33°46' W 118°14'0 0.0
2017-Sep-13 21:00N 33°46' W 118°14'0 0.0
2017-Sep-13 20:24N 33°46' W 118°14'0 0.0
2017-Sep-13 19:54N 33°46' W 118°14'0 0.0
2017-Sep-13 18:54N 33°46' W 118°14'0 0.0
2017-Sep-13 18:30N 33°46' W 118°14'0 0.0
2017-Sep-13 17:36N 33°46' W 118°14'0 0.0
2017-Sep-13 15:48N 33°46' W 118°14'0 0.0
2017-Sep-13 15:24N 33°46' W 118°14'0 0.0
2017-Sep-13 14:54N 33°46' W 118°14'0 0.0
2017-Sep-13 14:18N 33°46' W 118°14'0 0.0
2017-Sep-13 14:00N 33°46' W 118°14'0 0.0
2017-Sep-13 13:30N 33°46' W 118°14'0 0.0
2017-Sep-13 12:54N 33°46' W 118°14'0 0.0
2017-Sep-13 12:30N 33°46' W 118°14'0 0.0
2017-Sep-13 11:48N 33°46' W 118°14'0 0.1
2017-Sep-13 11:24N 33°46' W 118°14'0 0.0
2017-Sep-13 10:54N 33°46' W 118°14'0 0.0
2017-Sep-13 10:30N 33°46' W 118°14'0 0.1
2017-Sep-13 10:00N 33°46' W 118°14'0 0.0
2017-Sep-13 09:18N 33°46' W 118°14'0 0.0
2017-Sep-13 09:00N 33°46' W 118°14'0 0.1
2017-Sep-13 08:24N 33°46' W 118°14'0 0.2
2017-Sep-13 08:00N 33°46' W 118°14'0 0.1
2017-Sep-13 07:30N 33°46' W 118°14'0 0.1
2017-Sep-13 07:00N 33°46' W 118°14'0 0.0
2017-Sep-13 06:12N 33°46' W 118°14'0 0.0
2017-Sep-13 06:00N 33°46' W 118°14'0 0.0
2017-Sep-13 05:30N 33°46' W 118°14'0 0.0
2017-Sep-13 04:54N 33°46' W 118°14'0 0.0
2017-Sep-13 04:12N 33°46' W 118°14'0 0.0
2017-Sep-13 04:00N 33°46' W 118°14'0 0.0
2017-Sep-13 03:30N 33°46' W 118°14'0 0.0
2017-Sep-13 03:00N 33°46' W 118°14'0 0.0
2017-Sep-13 02:24N 33°46' W 118°14'0 0.0
2017-Sep-13 02:00N 33°46' W 118°14'0 0.1
2017-Sep-13 01:30N 33°46' W 118°14'0 0.1
2017-Sep-13 01:00N 33°46' W 118°14'0 0.0
2017-Sep-13 00:30N 33°46' W 118°14'0 0.0
2017-Sep-13 00:00N 33°46' W 118°14'0 0.0
2017-Sep-12 23:30N 33°46' W 118°14'0 0.0
2017-Sep-12 23:00N 33°46' W 118°14'0 0.1
2017-Sep-12 22:30N 33°46' W 118°14'0 0.0
2017-Sep-12 22:00N 33°46' W 118°14'0 0.0
2017-Sep-12 21:30N 33°46' W 118°14'0 0.0
2017-Sep-12 21:00N 33°46' W 118°14'0 0.0
2017-Sep-12 20:30N 33°46' W 118°14'0 0.0
2017-Sep-12 19:54N 33°46' W 118°14'0 0.1
2017-Sep-12 19:27N 33°46' W 118°14'0 0.1
2017-Sep-12 19:00N 33°46' W 118°14'0 0.0
2017-Sep-12 18:30N 33°46' W 118°14'0 0.0
2017-Sep-12 18:00N 33°46' W 118°14'0 0.0
2017-Sep-12 17:12N 33°46' W 118°14'0 0.0
2017-Sep-12 17:00N 33°46' W 118°14'0 0.0
2017-Sep-12 16:30N 33°46' W 118°14'0 0.0
2017-Sep-12 16:00N 33°46' W 118°14'0 0.0
2017-Sep-12 15:30N 33°46' W 118°14'0 0.0
2017-Sep-12 15:00N 33°46' W 118°14'0 0.0
2017-Sep-12 14:09N 33°46' W 118°14'0 0.0
2017-Sep-12 13:54N 33°46' W 118°14'0 0.0
2017-Sep-12 13:30N 33°46' W 118°14'0 0.0
2017-Sep-12 12:57N 33°46' W 118°14'0 1.1
2017-Sep-12 12:30N 33°46' W 118°13'1 2.9
2017-Sep-12 12:01N 33°45' W 118°13'4 7.9
2017-Sep-12 11:31N 33°41' W 118°11'4 8.4
2017-Sep-12 11:00N 33°38' W 118°13'4 8.0
2017-Sep-12 10:31N 33°36' W 118°18'510.0
2017-Sep-12 10:01N 33°38' W 118°24'611.6
2017-Sep-12 09:31N 33°41' W 118°30'611.8
2017-Sep-12 09:00N 33°43' W 118°36'612.1
2017-Sep-12 08:31N 33°46' W 118°42'612.1
2017-Sep-12 08:00N 33°49' W 118°49'612.1
2017-Sep-12 07:30N 33°52' W 118°55'611.9
2017-Sep-12 07:01N 33°55' W 119°01'612.1
2017-Sep-12 06:30N 33°58' W 119°08'612.0
2017-Sep-12 06:01N 34°01' W 119°14'612.6
2017-Sep-12 05:30N 34°03' W 119°21'815.1
2017-Sep-12 05:00N 34°05' W 119°30'815.2
2017-Sep-12 04:30N 34°07' W 119°39'815.2
2017-Sep-12 04:00N 34°10' W 119°48'815.8
2017-Sep-12 03:30N 34°12' W 119°57'815.1
2017-Sep-12 03:00N 34°14' W 120°06'715.0
2017-Sep-12 02:30N 34°16' W 120°14'715.1
2017-Sep-12 02:00N 34°18' W 120°23'815.0
2017-Sep-12 01:29N 34°19' W 120°32'714.4
2017-Sep-12 01:00N 34°21' W 120°40'714.8
2017-Sep-12 00:30N 34°24' W 120°49'815.3
2017-Sep-12 00:00N 34°26' W 120°58'815.4
2017-Sep-11 23:30N 34°30' W 121°06'815.4
2017-Sep-11 23:00N 34°34' W 121°14'816.4
2017-Sep-11 22:30N 34°38' W 121°23'816.6
2017-Sep-11 22:00N 34°42' W 121°31'816.8
2017-Sep-11 21:30N 34°46' W 121°40'816.5
2017-Sep-11 21:00N 34°50' W 121°49'3516.8
2017-Sep-11 18:57N 35°08' W 122°25'1516.9
2017-Sep-11 18:03N 35°16' W 122°41'216.1
2017-Sep-11 17:57N 35°16' W 122°42'2616.6
2017-Sep-11 16:23N 35°29' W 123°10'1617.0
2017-Sep-11 15:25N 35°38' W 123°28'717.4
2017-Sep-11 15:00N 35°41' W 123°35'918.3
2017-Sep-11 14:30N 35°46' W 123°45'1018.9
2017-Sep-11 14:00N 35°51' W 123°55'919.0
2017-Sep-11 13:30N 35°56' W 124°05'1218.9
2017-Sep-11 12:51N 36°02' W 124°18'719.0
2017-Sep-11 12:30N 36°05' W 124°25'1318.5
2017-Sep-11 11:48N 36°12' W 124°39'618.4
2017-Sep-11 11:28N 36°15' W 124°46'817.8
2017-Sep-11 11:00N 36°19' W 124°54'917.5
2017-Sep-11 10:30N 36°24' W 125°04'917.5
2017-Sep-11 10:00N 36°28' W 125°14'1417.4
2017-Sep-11 09:12N 36°34' W 125°29'417.5
2017-Sep-11 09:00N 36°36' W 125°33'917.5
2017-Sep-11 08:30N 36°40' W 125°42'917.6
2017-Sep-11 07:58N 36°44' W 125°53'1717.5
2017-Sep-11 07:01N 36°52' W 126°11'217.3
2017-Sep-11 06:56N 36°52' W 126°13'717.1
2017-Sep-11 06:30N 36°56' W 126°21'3316.2
2017-Sep-11 04:28N 37°11' W 126°58'1815.9
2017-Sep-11 03:22N 37°19' W 127°17'616.1
2017-Sep-11 03:00N 37°22' W 127°23'1116.3
2017-Sep-11 02:19N 37°27' W 127°36'2514.6
2017-Sep-11 00:38N 37°39' W 128°04'414.9
2017-Sep-11 00:23N 37°40' W 128°08'1120.5
2017-Sep-10 23:49N 37°45' W 128°21'  

Dump ship's entire track history